Time;durP1;ratioP1;P1;durP2;ratioP2;P2;SDS_P1;SDS_P2;PMS_P1;PMS_P2;Temp;Humidity;BMP_temperature;BMP_pressure;BME280_temperature;BME280_humidity;BME280_pressure;Samples;Min_cycle;Max_cycle;Signal;HPM_P1;HPM_P2
2021/08/27 00:01:11;;;;;;;3.95;2.90;;;;;;;14.37;100.00;101859.25;6339541;28;20198;-74
2021/08/27 00:04:16;;;;;;;2.85;2.63;;;;;;;14.36;100.00;101863.06;6338632;28;20241;-74
2021/08/27 00:07:27;;;;;;;4.93;2.70;;;;;;;14.48;100.00;101863.22;6338272;28;20183;-74
2021/08/27 00:10:33;;;;;;;4.97;2.80;;;;;;;14.46;100.00;101862.59;6339673;28;20183;-74
2021/08/27 00:13:39;;;;;;;5.35;2.97;;;;;;;14.41;100.00;101859.66;6339534;28;20215;-74
2021/08/27 00:16:43;;;;;;;5.95;2.90;;;;;;;14.40;100.00;101857.97;6338026;28;20191;-74
2021/08/27 00:19:49;;;;;;;3.00;2.65;;;;;;;14.47;100.00;101869.78;6339379;28;20197;-74
2021/08/27 00:22:53;;;;;;;2.70;2.60;;;;;;;14.40;100.00;101875.31;6338491;28;20254;-74
2021/08/27 00:25:59;;;;;;;3.78;3.00;;;;;;;14.55;100.00;101861.28;6338209;28;20187;-74
2021/08/27 00:29:03;;;;;;;2.67;2.58;;;;;;;14.49;100.00;101862.16;6338671;28;20214;-73
2021/08/27 00:32:10;;;;;;;2.70;2.60;;;;;;;14.53;100.00;101868.91;6320065;28;20514;-74
2021/08/27 00:35:15;;;;;;;2.53;2.38;;;;;;;14.50;100.00;101874.84;6338235;28;20182;-75
2021/08/27 00:38:20;;;;;;;2.60;2.42;;;;;;;14.54;100.00;101865.09;6337757;28;20187;-74
2021/08/27 00:41:25;;;;;;;3.08;2.80;;;;;;;14.54;100.00;101865.09;6338508;28;20214;-74
2021/08/27 00:44:29;;;;;;;2.40;2.30;;;;;;;14.49;100.00;101856.66;6338711;28;20183;-74
2021/08/27 00:47:33;;;;;;;2.80;2.60;;;;;;;14.52;100.00;101872.72;6338342;28;20196;-73
2021/08/27 00:50:41;;;;;;;2.55;2.38;;;;;;;14.56;100.00;101875.88;6337629;28;20260;-74
2021/08/27 00:53:45;;;;;;;2.55;2.40;;;;;;;14.46;100.00;101889.22;6337278;28;20501;-74
2021/08/27 00:56:51;;;;;;;2.60;2.40;;;;;;;14.51;100.00;101882.00;6337725;28;20187;-74
2021/08/27 00:59:57;;;;;;;2.55;2.35;;;;;;;14.46;100.00;101884.56;6338466;28;20187;-74
2021/08/27 01:03:02;;;;;;;2.95;2.40;;;;;;;14.50;100.00;101885.81;6338726;28;20235;-74
2021/08/27 01:06:15;;;;;;;3.35;2.42;;;;;;;14.49;100.00;101889.63;6337295;28;20190;-74
2021/08/27 01:09:35;;;;;;;3.83;2.58;;;;;;;14.42;100.00;101897.03;6336763;28;20207;-74
2021/08/27 01:12:46;;;;;;;3.08;2.28;;;;;;;14.50;100.00;101896.81;6336799;28;20186;-74
2021/08/27 01:15:58;;;;;;;2.83;2.63;;;;;;;14.63;100.00;101896.75;6336735;28;20533;-74
2021/08/27 01:19:22;;;;;;;4.85;2.80;;;;;;;14.52;100.00;101905.66;6338064;28;20296;-74
2021/08/27 01:22:45;;;;;;;3.20;2.17;;;;;;;14.54;100.00;101898.03;6320058;28;20198;-75
2021/08/27 01:25:53;;;;;;;2.45;2.15;;;;;;;14.50;100.00;101913.28;6336422;28;20467;-73
2021/08/27 01:29:03;;;;;;;2.78;2.50;;;;;;;14.56;100.00;101911.56;6337419;28;20211;-73
2021/08/27 01:32:11;;;;;;;2.30;2.20;;;;;;;14.59;100.00;101914.72;6337112;28;20182;-73
2021/08/27 01:35:18;;;;;;;2.22;2.22;;;;;;;14.56;100.00;101912.41;6319823;28;20199;-73
2021/08/27 01:38:27;;;;;;;2.35;2.20;;;;;;;14.44;100.00;101908.66;6337785;28;20183;-73
2021/08/27 01:41:34;;;;;;;2.95;2.72;;;;;;;14.50;100.00;101917.94;6337757;28;20228;-74
2021/08/27 01:44:40;;;;;;;2.30;2.20;;;;;;;14.40;100.00;101929.38;6336254;28;20370;-73
2021/08/27 01:47:45;;;;;;;2.60;2.40;;;;;;;14.43;100.00;101920.72;6336325;28;20221;-75
2021/08/27 01:50:54;;;;;;;2.67;2.47;;;;;;;14.43;100.00;101934.44;6337255;28;20367;-75
2021/08/27 01:53:58;;;;;;;4.47;2.55;;;;;;;14.49;100.00;101932.69;6337549;28;20194;-74
2021/08/27 01:57:04;;;;;;;5.05;2.50;;;;;;;14.49;100.00;101927.22;6336170;28;20369;-75
2021/08/27 02:00:11;;;;;;;2.53;2.40;;;;;;;14.48;100.00;101937.38;6337470;28;20187;-73
2021/08/27 02:03:17;;;;;;;2.28;2.15;;;;;;;14.47;100.00;101946.66;6336821;28;20234;-73
2021/08/27 02:06:24;;;;;;;2.90;2.70;;;;;;;14.52;100.00;101938.63;6336596;28;20189;-73
2021/08/27 02:09:31;;;;;;;2.83;2.70;;;;;;;14.58;100.00;101937.75;6339106;28;20232;-73
2021/08/27 02:12:36;;;;;;;2.83;2.72;;;;;;;14.61;100.00;101945.53;6342292;28;20183;-73
2021/08/27 02:16:01;;;;;;;2.78;2.67;;;;;;;14.58;100.00;101948.75;6341124;28;20206;-73
2021/08/27 02:19:06;;;;;;;2.72;2.63;;;;;;;14.58;100.00;101950.66;6341178;28;20550;-73
2021/08/27 02:22:16;;;;;;;2.58;2.42;;;;;;;14.63;100.00;101948.94;6341210;28;20191;-73
2021/08/27 02:25:27;;;;;;;2.80;2.60;;;;;;;14.55;100.00;101948.31;6342116;28;20191;-75
2021/08/27 02:28:32;;;;;;;3.50;3.20;;;;;;;14.54;100.00;101949.38;6341641;28;20183;-74
2021/08/27 02:31:38;;;;;;;3.17;3.00;;;;;;;14.53;100.00;101962.28;6340503;28;20210;-74
2021/08/27 02:34:45;;;;;;;3.20;2.92;;;;;;;14.43;100.00;101956.41;6340702;28;20213;-74
2021/08/27 02:37:52;;;;;;;3.25;2.90;;;;;;;14.53;100.00;101967.78;6341540;28;20190;-74
2021/08/27 02:40:56;;;;;;;2.92;2.75;;;;;;;14.53;100.00;101972.41;6340372;28;20467;-74
2021/08/27 02:44:00;;;;;;;3.00;2.78;;;;;;;14.40;100.00;101973.31;6340355;28;20569;-74
2021/08/27 02:47:05;;;;;;;2.70;2.70;;;;;;;14.29;100.00;101982.16;6340236;28;20500;-74
2021/08/27 02:50:13;;;;;;;3.33;3.10;;;;;;;14.35;100.00;101981.34;6341052;28;20207;-74
2021/08/27 02:53:23;;;;;;;3.25;3.05;;;;;;;14.40;100.00;101976.03;6340178;28;20486;-74
2021/08/27 02:56:30;;;;;;;2.97;2.58;;;;;;;14.43;100.00;101983.84;6340096;28;20267;-75
2021/08/27 02:59:37;;;;;;;2.83;2.75;;;;;;;14.56;100.00;101989.28;6341327;28;20191;-75
2021/08/27 03:02:43;;;;;;;2.78;2.67;;;;;;;14.43;100.00;101994.84;6340396;28;20549;-74
2021/08/27 03:05:50;;;;;;;2.70;2.60;;;;;;;14.43;100.00;102000.34;6340380;28;20190;-74
2021/08/27 03:09:02;;;;;;;2.65;2.45;;;;;;;14.33;100.00;101999.91;6341086;28;20229;-74
2021/08/27 03:12:08;;;;;;;3.38;2.92;;;;;;;14.37;100.00;101990.19;6340947;28;20215;-75
2021/08/27 03:15:20;;;;;;;2.80;2.50;;;;;;;14.32;100.00;102003.72;6339588;28;20187;-74
2021/08/27 03:18:31;;;;;;;2.92;2.83;;;;;;;14.34;100.00;102007.09;6340640;28;20271;-75
2021/08/27 03:21:39;;;;;;;2.80;2.70;;;;;;;14.27;100.00;102007.09;6339753;28;20191;-74
2021/08/27 03:24:51;;;;;;;3.00;2.80;;;;;;;14.25;100.00;102003.69;6340503;28;20251;-74
2021/08/27 03:28:00;;;;;;;2.90;2.80;;;;;;;14.31;100.00;102008.38;6340820;28;20183;-74
2021/08/27 03:31:05;;;;;;;4.10;2.80;;;;;;;14.23;100.00;102005.81;6340528;28;20207;-74
2021/08/27 03:34:13;;;;;;;3.08;2.88;;;;;;;14.29;100.00;102004.09;6339886;28;20194;-74
2021/08/27 03:37:19;;;;;;;3.00;2.80;;;;;;;14.31;100.00;102008.38;6340092;28;20189;-74
2021/08/27 03:40:26;;;;;;;2.95;2.78;;;;;;;14.30;100.00;102016.78;6339909;28;20186;-74
2021/08/27 03:43:33;;;;;;;2.92;2.70;;;;;;;14.27;100.00;102011.72;6338954;28;20350;-74
2021/08/27 03:46:38;;;;;;;2.78;2.72;;;;;;;14.33;100.00;102010.88;6340093;28;20182;-73
2021/08/27 03:49:45;;;;;;;3.22;2.72;;;;;;;14.39;100.00;102010.88;6338531;28;20324;-74
2021/08/27 03:52:52;;;;;;;3.53;2.78;;;;;;;14.25;100.00;102030.31;6339914;28;20309;-75
2021/08/27 03:55:58;;;;;;;3.13;3.00;;;;;;;14.28;100.00;102013.38;6339979;28;20182;-74
2021/08/27 03:59:03;;;;;;;4.70;2.22;;;;;;;14.43;100.00;102020.38;6339334;28;20262;-75
2021/08/27 04:02:11;;;;;;;5.75;2.90;;;;;;;14.46;100.00;102021.03;6339363;28;20205;-75
2021/08/27 04:05:17;;;;;;;3.65;3.35;;;;;;;14.44;100.00;102023.97;6313183;28;20183;-75
2021/08/27 04:08:21;;;;;;;3.28;3.05;;;;;;;14.49;100.00;102020.56;6314277;28;20184;-75
2021/08/27 04:11:27;;;;;;;3.20;3.00;;;;;;;14.42;100.00;102023.34;6313968;28;20321;-75
2021/08/27 04:14:31;;;;;;;2.60;2.50;;;;;;;14.32;100.00;102028.44;6314099;28;20183;-75
2021/08/27 04:17:36;;;;;;;3.30;3.17;;;;;;;14.28;100.00;102029.88;6314347;28;20187;-75
2021/08/27 04:20:40;;;;;;;4.68;2.30;;;;;;;14.35;100.00;102030.75;6313827;28;20219;-75
2021/08/27 04:23:45;;;;;;;2.58;2.45;;;;;;;14.39;100.00;102026.50;6313976;28;20183;-75
2021/08/27 04:26:51;;;;;;;3.00;2.80;;;;;;;14.52;100.00;102042.97;6313702;28;20251;-74
2021/08/27 04:29:55;;;;;;;2.60;2.50;;;;;;;14.37;100.00;102031.38;6313861;28;20250;-74
2021/08/27 04:32:59;;;;;;;3.17;3.08;;;;;;;14.40;100.00;102041.94;6313669;28;20274;-75
2021/08/27 04:36:04;;;;;;;3.03;2.90;;;;;;;14.36;100.00;102032.44;6312301;28;20183;-76
2021/08/27 04:39:09;;;;;;;3.80;2.97;;;;;;;14.31;100.00;102045.94;6313813;28;20229;-75
2021/08/27 04:42:14;;;;;;;2.80;2.72;;;;;;;14.34;100.00;102040.88;6312697;28;20187;-75
2021/08/27 04:45:18;;;;;;;3.03;2.83;;;;;;;14.28;100.00;102046.34;6312268;28;20480;-75
2021/08/27 04:48:23;;;;;;;2.97;2.78;;;;;;;14.43;100.00;102046.16;6313584;28;20191;-75
2021/08/27 04:51:29;;;;;;;2.85;2.75;;;;;;;14.38;100.00;102058.59;6313279;28;20208;-75
2021/08/27 04:54:33;;;;;;;3.03;2.78;;;;;;;14.27;100.00;102066.63;6311934;28;20492;-75
2021/08/27 04:57:42;;;;;;;2.63;2.50;;;;;;;14.34;100.00;102062.00;6312786;28;20183;-75
2021/08/27 05:00:46;;;;;;;2.75;2.65;;;;;;;14.36;100.00;102057.13;6311817;28;20195;-75
2021/08/27 05:03:53;;;;;;;2.65;2.63;;;;;;;14.45;100.00;102066.88;6326409;28;20323;-75
2021/08/27 05:06:57;;;;;;;3.08;2.78;;;;;;;14.41;100.00;102068.31;6336980;28;20183;-75
2021/08/27 05:10:01;;;;;;;3.22;2.88;;;;;;;14.49;100.00;102070.84;6336830;28;20419;-76
2021/08/27 05:13:10;;;;;;;3.53;2.65;;;;;;;14.52;100.00;102075.94;6336783;28;20514;-74
2021/08/27 05:16:14;;;;;;;4.97;3.15;;;;;;;14.61;100.00;102069.13;6338109;28;20252;-75
2021/08/27 05:19:19;;;;;;;7.63;2.80;;;;;;;14.75;100.00;102076.31;6336706;28;20266;-75
2021/08/27 05:22:23;;;;;;;3.00;2.83;;;;;;;14.58;100.00;102086.06;6336564;28;20360;-75
2021/08/27 05:25:27;;;;;;;3.20;3.05;;;;;;;14.55;100.00;102096.63;6336718;28;20474;-75
2021/08/27 05:28:32;;;;;;;2.97;2.75;;;;;;;14.58;100.00;102097.06;6336864;28;20189;-75
2021/08/27 05:31:37;;;;;;;2.67;2.58;;;;;;;14.62;100.00;102086.47;6337381;28;20206;-75
2021/08/27 05:34:42;;;;;;;2.83;2.70;;;;;;;14.63;100.00;102080.78;6337152;28;20213;-74
2021/08/27 05:37:46;;;;;;;3.13;2.88;;;;;;;14.71;100.00;102086.06;6337501;28;20212;-75
2021/08/27 05:40:50;;;;;;;3.33;3.05;;;;;;;14.64;100.00;102085.19;6336178;28;20537;-75
2021/08/27 05:43:56;;;;;;;3.50;3.30;;;;;;;14.69;100.00;102093.66;6336875;28;20190;-75
2021/08/27 05:47:00;;;;;;;3.50;3.30;;;;;;;14.73;100.00;102099.56;6337546;28;20246;-74
2021/08/27 05:50:06;;;;;;;3.35;3.13;;;;;;;14.71;100.00;102113.53;6336129;28;20466;-74
2021/08/27 05:53:11;;;;;;;3.45;3.15;;;;;;;14.72;100.00;102115.19;6336488;28;20283;-76
2021/08/27 05:56:15;;;;;;;3.25;3.13;;;;;;;14.71;100.00;102113.53;6337647;28;20218;-76
2021/08/27 05:59:20;;;;;;;3.40;3.22;;;;;;;14.77;100.00;102118.16;6337502;28;20266;-76
2021/08/27 06:02:24;;;;;;;3.13;2.67;;;;;;;14.78;100.00;102119.84;6336822;28;20234;-76
2021/08/27 06:05:28;;;;;;;3.20;3.05;;;;;;;14.79;100.00;102123.44;6336037;28;20470;-76
2021/08/27 06:08:35;;;;;;;3.58;3.45;;;;;;;14.80;100.00;102125.97;6336095;28;20372;-76
2021/08/27 06:11:41;;;;;;;3.47;3.28;;;;;;;14.81;100.00;102124.91;6337214;28;20218;-76
2021/08/27 06:14:47;;;;;;;3.80;3.60;;;;;;;14.86;100.00;102127.88;6337397;28;20183;-60
2021/08/27 06:17:51;;;;;;;3.30;3.00;;;;;;;14.89;100.00;102121.91;6336105;28;20187;-76
2021/08/27 06:20:55;;;;;;;3.60;3.30;;;;;;;15.07;100.00;102128.66;6336786;28;20252;-76
2021/08/27 06:24:00;;;;;;;3.28;3.00;;;;;;;14.89;100.00;102121.91;6336784;28;20190;-76
2021/08/27 06:27:05;;;;;;;3.58;3.38;;;;;;;14.89;100.00;102121.91;6336870;28;20246;-76
2021/08/27 06:30:12;;;;;;;3.60;3.40;;;;;;;14.95;100.00;102123.81;6336740;28;20215;-76
2021/08/27 06:33:17;;;;;;;3.75;3.25;;;;;;;14.89;100.00;102121.91;6336979;28;20214;-76
2021/08/27 06:36:22;;;;;;;5.18;3.47;;;;;;;14.91;100.00;102125.31;6335563;28;20379;-76
2021/08/27 06:39:26;;;;;;;3.75;3.40;;;;;;;14.81;100.00;102130.41;6335508;28;20528;-77
2021/08/27 06:42:30;;;;;;;3.60;3.25;;;;;;;14.80;100.00;102138.84;6336941;28;20194;-76
2021/08/27 06:45:36;;;;;;;3.42;3.33;;;;;;;14.87;100.00;102134.19;6335444;28;20232;-76
2021/08/27 06:48:41;;;;;;;3.80;3.67;;;;;;;14.81;100.00;102144.16;6337100;28;20183;-76
2021/08/27 06:51:45;;;;;;;3.10;3.00;;;;;;;14.83;100.00;102150.28;6336717;28;20192;-77
2021/08/27 06:54:49;;;;;;;3.25;3.05;;;;;;;14.97;100.00;102140.13;6335888;28;20411;-76
2021/08/27 06:57:53;;;;;;;3.50;3.30;;;;;;;15.01;100.00;102136.72;6339794;28;20382;-76
2021/08/27 07:01:00;;;;;;;2.92;2.92;;;;;;;14.90;100.00;102129.13;6339733;28;20466;-76
2021/08/27 07:04:07;;;;;;;3.47;3.22;;;;;;;14.95;100.00;102123.81;6340340;28;20284;-76
2021/08/27 07:07:11;;;;;;;2.85;2.75;;;;;;;15.00;100.00;102134.16;6340598;28;20221;-76
2021/08/27 07:10:15;;;;;;;3.63;3.42;;;;;;;14.96;100.00;102136.50;6339471;28;20246;-76
2021/08/27 07:13:19;;;;;;;3.45;3.13;;;;;;;15.01;100.00;102136.72;6340774;28;20207;-77
2021/08/27 07:16:43;;;;;;;3.63;3.40;;;;;;;14.95;100.00;102134.81;6340331;28;20190;-76
2021/08/27 07:19:48;;;;;;;3.97;3.63;;;;;;;15.03;100.00;102129.09;6339326;28;20183;-76
2021/08/27 07:22:52;;;;;;;3.45;3.33;;;;;;;15.13;100.00;102139.63;6340344;28;20187;-76
2021/08/27 07:25:56;;;;;;;3.45;3.30;;;;;;;15.20;100.00;102139.63;6340213;28;20183;-76
2021/08/27 07:29:01;;;;;;;3.72;3.50;;;;;;;15.18;100.00;102141.72;6340606;28;20183;-76
2021/08/27 07:32:11;;;;;;;3.35;3.13;;;;;;;15.10;100.00;102145.56;6340168;28;20191;-76
2021/08/27 07:35:15;;;;;;;4.47;4.07;;;;;;;15.14;100.00;102157.81;6339638;28;20191;-76
2021/08/27 07:38:19;;;;;;;3.60;3.40;;;;;;;14.97;100.00;102151.94;6340126;28;20218;-76
2021/08/27 07:41:24;;;;;;;3.97;3.75;;;;;;;15.05;100.00;102137.97;6339666;28;20252;-76
2021/08/27 07:44:28;;;;;;;4.03;3.72;;;;;;;15.07;100.00;102145.16;6338706;28;20379;-76
2021/08/27 07:47:33;;;;;;;3.88;3.50;;;;;;;15.07;100.00;102145.16;6339318;28;20182;-76
2021/08/27 07:50:38;;;;;;;4.25;3.95;;;;;;;14.95;100.00;102143.06;6338556;28;20379;-80
2021/08/27 07:53:42;;;;;;;4.18;3.88;;;;;;;15.01;100.00;102155.97;6339751;28;20206;-77
2021/08/27 07:56:46;;;;;;;6.35;4.00;;;;;;;15.04;100.00;102163.78;6339627;28;20183;-76
2021/08/27 07:59:50;;;;;;;3.90;3.70;;;;;;;15.08;100.00;102150.44;6339634;28;20189;-76
2021/08/27 08:02:55;;;;;;;3.72;3.53;;;;;;;15.07;100.00;102150.66;6339366;28;20241;-76
2021/08/27 08:06:01;;;;;;;4.00;3.50;;;;;;;15.07;100.00;102157.00;6338470;28;20190;-76
2021/08/27 08:09:07;;;;;;;4.00;3.72;;;;;;;15.13;100.00;102160.78;6339545;28;20226;-76
2021/08/27 08:12:14;;;;;;;3.50;3.30;;;;;;;15.13;100.00;102147.88;6339110;28;20182;-76
2021/08/27 08:15:21;;;;;;;5.28;3.30;;;;;;;14.99;100.00;102149.84;6339234;28;20189;-76
2021/08/27 08:18:26;;;;;;;5.65;4.70;;;;;;;15.04;100.00;102158.28;6338779;28;20214;-76
2021/08/27 08:21:33;;;;;;;3.97;3.67;;;;;;;15.01;100.00;102164.19;6338831;28;20205;-76
2021/08/27 08:24:37;;;;;;;3.30;3.20;;;;;;;15.04;100.00;102169.28;6337784;28;20580;-76
2021/08/27 08:27:41;;;;;;;4.47;3.58;;;;;;;15.14;100.00;102167.97;6337767;28;20470;-76
2021/08/27 08:30:46;;;;;;;3.72;3.42;;;;;;;15.18;100.00;102175.56;6337689;28;20368;-76
2021/08/27 08:33:55;;;;;;;3.35;3.10;;;;;;;15.31;100.00;102180.19;6337522;28;20440;-76
2021/08/27 08:37:00;;;;;;;5.40;3.30;;;;;;;15.28;100.00;102164.97;6337577;28;20375;-76
2021/08/27 08:40:05;;;;;;;3.70;3.40;;;;;;;15.35;100.00;102173.22;6338480;28;20214;-76
2021/08/27 08:43:12;;;;;;;3.63;3.35;;;;;;;15.31;100.00;102174.69;6338754;28;20194;-76
2021/08/27 08:46:17;;;;;;;3.47;3.33;;;;;;;15.28;100.00;102175.16;6338644;28;20214;-76
2021/08/27 08:49:27;;;;;;;3.67;3.38;;;;;;;15.23;100.00;102177.69;6338579;28;20229;-76
2021/08/27 08:52:36;;;;;;;4.00;3.70;;;;;;;15.30;100.00;102178.50;6337331;28;20244;-76
2021/08/27 08:55:42;;;;;;;7.35;3.53;;;;;;;15.43;100.00;102189.47;6338590;28;20183;-76
2021/08/27 08:58:46;;;;;;;5.28;3.30;;;;;;;15.42;100.00;102193.28;6337212;28;20436;-76
2021/08/27 09:01:50;;;;;;;3.53;3.42;;;;;;;15.37;100.00;102201.34;6337132;28;20221;-76
2021/08/27 09:05:01;;;;;;;4.47;3.65;;;;;;;15.45;100.00;102202.00;6337266;28;20611;-76
2021/08/27 09:08:06;;;;;;;4.60;3.65;;;;;;;15.41;100.00;102199.81;6338099;28;20189;-76
2021/08/27 09:11:17;;;;;;;4.35;3.95;;;;;;;15.40;100.00;102206.41;6338216;28;20246;-76
2021/08/27 09:14:28;;;;;;;3.67;3.38;;;;;;;15.42;100.00;102204.28;6338014;28;20218;-76
2021/08/27 09:17:34;;;;;;;3.60;3.30;;;;;;;15.45;100.00;102209.34;6336116;28;20277;-76
2021/08/27 09:20:41;;;;;;;4.25;3.85;;;;;;;15.21;100.00;102212.78;6336870;28;20197;-76
2021/08/27 09:23:45;;;;;;;3.65;3.53;;;;;;;15.27;100.00;102212.78;6337430;28;20193;-76
2021/08/27 09:26:55;;;;;;;4.22;3.67;;;;;;;15.35;100.00;102219.97;6336536;28;20182;-75
2021/08/27 09:29:59;;;;;;;5.18;3.70;;;;;;;15.45;100.00;102220.34;6337889;28;20183;-78
2021/08/27 09:33:12;;;;;;;3.50;3.25;;;;;;;15.36;100.00;102216.13;6337851;28;20183;-75
2021/08/27 09:36:20;;;;;;;3.97;3.35;;;;;;;15.39;100.00;102221.22;6337402;28;20183;-74
2021/08/27 09:39:32;;;;;;;4.78;3.45;;;;;;;15.40;100.00;102228.41;6336487;28;20529;-74
2021/08/27 09:42:41;;;;;;;3.92;3.45;;;;;;;15.38;100.00;102241.53;6336194;28;20386;-74
2021/08/27 09:45:45;;;;;;;4.03;3.70;;;;;;;15.39;100.00;102237.72;6337313;28;20195;-75
2021/08/27 09:48:50;;;;;;;6.07;4.35;;;;;;;15.32;100.00;102242.38;6337641;28;20183;-72
2021/08/27 09:52:00;;;;;;;4.30;3.78;;;;;;;15.39;100.00;102229.47;6336907;28;20220;-72
2021/08/27 09:55:08;;;;;;;4.43;3.85;;;;;;;15.36;100.00;102243.63;6337278;28;20206;-72
2021/08/27 09:58:12;;;;;;;3.83;3.53;;;;;;;15.33;100.00;102235.84;6336970;28;20340;-72
2021/08/27 10:01:17;;;;;;;5.00;3.55;;;;;;;15.42;100.00;102237.28;6336804;28;20198;-73
2021/08/27 10:04:22;;;;;;;3.30;3.15;;;;;;;15.34;100.00;102241.13;6337134;28;20280;-73
2021/08/27 10:07:29;;;;;;;8.95;3.88;;;;;;;15.34;100.00;102252.13;6335739;28;20497;-73
2021/08/27 10:10:33;;;;;;;4.28;3.88;;;;;;;15.36;100.00;102249.13;6336855;28;20190;-73
2021/08/27 10:13:41;;;;;;;3.85;3.50;;;;;;;15.24;100.00;102234.34;6336584;28;20273;-73
2021/08/27 10:16:45;;;;;;;3.97;3.67;;;;;;;15.40;100.00;102244.91;6336461;28;20217;-73
2021/08/27 10:19:49;;;;;;;4.70;4.07;;;;;;;15.45;100.00;102242.34;6336171;28;20250;-74
2021/08/27 10:22:55;;;;;;;6.28;3.88;;;;;;;15.49;100.00;102243.63;6336582;28;20190;-74
2021/08/27 10:26:10;;;;;;;8.45;3.67;;;;;;;15.48;100.00;102241.97;6336040;28;20254;-74
2021/08/27 10:29:17;;;;;;;4.75;4.35;;;;;;;15.42;100.00;102240.03;6338023;28;20229;-74
2021/08/27 10:32:50;;;;;;;4.70;4.40;;;;;;;15.43;100.00;102248.06;6340640;28;20199;-74
2021/08/27 10:35:54;;;;;;;6.57;4.63;;;;;;;15.45;100.00;102253.38;6341473;28;20253;-74
2021/08/27 10:39:01;;;;;;;6.57;4.95;;;;;;;15.35;100.00;102250.22;6341535;28;20182;-73
2021/08/27 10:42:06;;;;;;;6.43;5.13;;;;;;;15.28;100.00;102246.63;6341097;28;20227;-74
2021/08/27 10:45:10;;;;;;;5.30;4.85;;;;;;;15.39;100.00;102254.22;6341081;28;20210;-74
2021/08/27 10:48:16;;;;;;;5.47;4.53;;;;;;;15.28;100.00;102247.47;6341352;28;20190;-74
2021/08/27 10:51:35;;;;;;;4.95;4.47;;;;;;;15.33;100.00;102246.84;6339988;28;20218;-73
2021/08/27 10:55:13;;;;;;;6.32;4.82;;;;;;;15.18;100.00;102258.03;6339751;28;20430;-74
2021/08/27 10:58:22;;;;;;;5.30;4.68;;;;;;;15.27;100.00;102244.94;6341509;28;20219;-74
2021/08/27 11:01:28;;;;;;;6.03;4.88;;;;;;;15.30;100.00;102250.00;6340642;28;20199;-74
2021/08/27 11:04:42;;;;;;;4.28;3.88;;;;;;;15.30;100.00;102255.50;6340562;28;20238;-73
2021/08/27 11:07:47;;;;;;;4.22;3.80;;;;;;;15.37;100.00;102250.84;6340684;28;20198;-73
2021/08/27 11:11:23;;;;;;;6.38;4.28;;;;;;;15.40;100.00;102253.16;6340173;28;20191;-74
2021/08/27 11:14:29;;;;;;;4.22;3.85;;;;;;;15.50;100.00;102256.34;6340422;28;20207;-74
2021/08/27 11:17:33;;;;;;;4.07;3.78;;;;;;;15.52;100.00;102251.47;6340679;28;20183;-73
2021/08/27 11:20:37;;;;;;;4.68;4.28;;;;;;;15.49;100.00;102260.16;6339723;28;20190;-72
2021/08/27 11:23:53;;;;;;;4.82;4.32;;;;;;;15.50;100.00;102253.59;6339164;28;20499;-72
2021/08/27 11:27:00;;;;;;;4.20;3.90;;;;;;;15.44;100.00;102259.91;6339231;28;20248;-72
2021/08/27 11:30:40;;;;;;;5.18;4.55;;;;;;;15.35;100.00;102253.81;6322645;28;20206;-73
2021/08/27 11:33:50;;;;;;;4.32;4.13;;;;;;;15.41;100.00;102268.59;6304859;28;20198;-75
2021/08/27 11:36:55;;;;;;;6.63;4.95;;;;;;;15.39;100.00;102259.72;6339881;28;20214;-74
2021/08/27 11:39:59;;;;;;;5.40;4.40;;;;;;;15.45;100.00;102267.13;6340087;28;20185;-74
2021/08/27 11:43:04;;;;;;;5.18;4.45;;;;;;;15.45;100.00;102269.88;6339383;28;20202;-72
2021/08/27 11:46:15;;;;;;;7.05;4.38;;;;;;;15.30;100.00;102266.50;6340081;28;20194;-72
2021/08/27 11:49:40;;;;;;;8.93;5.72;;;;;;;15.30;100.00;102272.00;6338951;28;20273;-73
2021/08/27 11:52:45;;;;;;;6.25;5.63;;;;;;;15.32;100.00;102272.63;6339893;28;20183;-73
2021/08/27 11:55:49;;;;;;;7.55;5.03;;;;;;;15.21;100.00;102279.63;6338547;28;20211;-73
2021/08/27 11:58:53;;;;;;;6.07;4.93;;;;;;;15.27;100.00;102273.28;6338490;28;20480;-73
2021/08/27 12:02:20;;;;;;;6.28;5.13;;;;;;;15.37;100.00;102279.19;6339724;28;20198;-74
2021/08/27 12:05:25;;;;;;;8.18;4.55;;;;;;;15.36;100.00;102280.22;6339144;28;20193;-72
2021/08/27 12:08:30;;;;;;;5.57;4.95;;;;;;;15.40;99.53;102283.41;6339576;28;20183;-72
2021/08/27 12:11:34;;;;;;;7.05;4.32;;;;;;;15.40;100.00;102273.28;6339184;28;20197;-72
2021/08/27 12:14:52;;;;;;;5.93;4.43;;;;;;;15.47;100.00;102278.78;6339267;28;20221;-73
2021/08/27 12:17:59;;;;;;;5.63;5.07;;;;;;;15.40;100.00;102283.41;6338949;28;20183;-72
2021/08/27 12:21:03;;;;;;;5.03;4.63;;;;;;;15.45;99.31;102281.75;6338921;28;20183;-72
2021/08/27 12:24:12;;;;;;;4.82;4.53;;;;;;;15.49;98.71;102287.66;6338713;28;20220;-72
2021/08/27 12:27:16;;;;;;;6.20;4.90;;;;;;;15.41;98.78;102285.94;6337619;28;20479;-72
2021/08/27 12:30:24;;;;;;;5.82;5.13;;;;;;;15.37;99.93;102289.34;6338439;28;20221;-72
2021/08/27 12:33:50;;;;;;;5.22;4.80;;;;;;;15.33;100.00;102266.09;6337728;28;20219;-72
2021/08/27 12:36:54;;;;;;;4.50;4.20;;;;;;;15.22;100.00;102275.81;6338105;28;20242;-72
2021/08/27 12:40:07;;;;;;;5.78;4.28;;;;;;;15.24;100.00;102283.84;6337305;28;20379;-73
2021/08/27 12:43:16;;;;;;;5.05;4.60;;;;;;;15.21;100.00;102284.28;6337322;28;20524;-74
2021/08/27 12:46:28;;;;;;;4.47;4.18;;;;;;;15.18;100.00;102285.53;6338217;28;20186;-72
2021/08/27 12:49:33;;;;;;;4.90;4.38;;;;;;;15.04;100.00;102281.97;6338076;28;20246;-72
2021/08/27 12:52:38;;;;;;;4.95;4.10;;;;;;;15.14;100.00;102277.94;6336937;28;20521;-73
2021/08/27 12:55:44;;;;;;;5.60;3.83;;;;;;;15.10;100.00;102277.50;6337412;28;20257;-72
2021/08/27 12:58:50;;;;;;;4.20;3.90;;;;;;;15.14;100.00;102283.44;6336842;28;20183;-72
2021/08/27 13:01:55;;;;;;;4.72;4.20;;;;;;;15.11;100.00;102283.84;6338377;28;20205;-72
2021/08/27 13:05:01;;;;;;;6.78;4.10;;;;;;;15.10;100.00;102287.69;6337495;28;20297;-72
2021/08/27 13:08:10;;;;;;;4.40;3.83;;;;;;;15.02;100.00;102281.31;6337706;28;20193;-72
2021/08/27 13:11:15;;;;;;;3.78;3.55;;;;;;;14.86;100.00;102295.50;6337490;28;20183;-72
2021/08/27 13:14:25;;;;;;;6.28;3.30;;;;;;;14.97;100.00;102283.84;6336516;28;20236;-72
2021/08/27 13:17:29;;;;;;;4.60;3.42;;;;;;;14.97;100.00;102285.78;6337934;28;20218;-72
2021/08/27 13:20:35;;;;;;;3.60;3.40;;;;;;;15.11;100.00;102289.34;6337710;28;20183;-73
2021/08/27 13:23:42;;;;;;;3.80;3.50;;;;;;;14.89;100.00;102292.31;6337911;28;20183;-73
2021/08/27 13:26:54;;;;;;;2.72;2.72;;;;;;;14.94;100.00;102294.44;6336444;28;20595;-73
2021/08/27 13:29:59;;;;;;;3.25;3.05;;;;;;;15.05;100.00;102286.41;6337716;28;20214;-73
2021/08/27 13:33:05;;;;;;;6.00;3.35;;;;;;;15.01;100.00;102289.78;6337688;28;20190;-73
2021/08/27 13:36:14;;;;;;;2.90;2.80;;;;;;;15.07;100.00;102299.94;6336096;28;20269;-72
2021/08/27 13:39:20;;;;;;;4.20;2.92;;;;;;;15.13;100.00;102292.72;6337682;28;20221;-72
2021/08/27 13:42:24;;;;;;;2.60;2.50;;;;;;;15.05;100.00;102302.88;6336637;28;20183;-73
2021/08/27 13:45:28;;;;;;;2.92;2.83;;;;;;;14.98;100.00;102302.03;6336280;28;20539;-74
2021/08/27 13:48:32;;;;;;;5.03;3.03;;;;;;;14.86;100.00;102302.88;6336208;28;20396;-73
2021/08/27 13:51:40;;;;;;;3.00;2.88;;;;;;;14.96;100.00;102293.16;6336081;28;20329;-73
2021/08/27 13:54:47;;;;;;;5.05;3.30;;;;;;;14.86;100.00;102286.41;6336061;28;20209;-73
2021/08/27 13:57:52;;;;;;;3.42;2.92;;;;;;;14.94;100.00;102300.78;6337340;28;20210;-73
2021/08/27 14:00:56;;;;;;;3.00;2.90;;;;;;;14.94;100.00;102294.44;6336807;28;20205;-73
2021/08/27 14:04:03;;;;;;;3.17;2.53;;;;;;;14.89;100.00;102300.53;6337344;28;20226;-73
2021/08/27 14:07:10;;;;;;;2.90;2.70;;;;;;;14.90;100.00;102305.00;6342117;28;20186;-74
2021/08/27 14:10:16;;;;;;;3.00;2.50;;;;;;;14.98;100.00;102299.31;6342246;28;20259;-73
2021/08/27 14:13:20;;;;;;;3.20;2.13;;;;;;;14.97;100.00;102305.84;6342070;28;20183;-73
2021/08/27 14:16:27;;;;;;;2.38;2.17;;;;;;;14.99;100.00;102309.25;6341783;28;20286;-73
2021/08/27 14:19:31;;;;;;;2.45;2.25;;;;;;;15.03;100.00;102310.50;6340738;28;20257;-73